sensor_id;sensor_type;location;lat;lon;timestamp;P1;durP1;ratioP1;P2;durP2;ratioP2
55720;SDS011;41626;53.098;6.168;2022-08-01T00:02:07;11.82;;;6.13;;
55720;SDS011;41626;53.098;6.168;2022-08-01T00:04:32;11.52;;;5.97;;
55720;SDS011;41626;53.098;6.168;2022-08-01T00:06:58;8.82;;;7.47;;
55720;SDS011;41626;53.098;6.168;2022-08-01T00:09:23;9.68;;;6.47;;
55720;SDS011;41626;53.098;6.168;2022-08-01T00:11:49;9.00;;;6.60;;
55720;SDS011;41626;53.098;6.168;2022-08-01T00:14:15;9.10;;;6.15;;
55720;SDS011;41626;53.098;6.168;2022-08-01T00:16:41;10.50;;;6.35;;
55720;SDS011;41626;53.098;6.168;2022-08-01T00:19:06;8.85;;;6.07;;
55720;SDS011;41626;53.098;6.168;2022-08-01T00:21:32;10.15;;;5.22;;
55720;SDS011;41626;53.098;6.168;2022-08-01T00:23:58;9.27;;;5.45;;
55720;SDS011;41626;53.098;6.168;2022-08-01T00:26:24;7.60;;;4.75;;
55720;SDS011;41626;53.098;6.168;2022-08-01T00:28:49;10.38;;;5.97;;
55720;SDS011;41626;53.098;6.168;2022-08-01T00:31:15;7.63;;;4.35;;
55720;SDS011;41626;53.098;6.168;2022-08-01T00:33:41;5.30;;;4.28;;
55720;SDS011;41626;53.098;6.168;2022-08-01T00:36:06;7.20;;;5.00;;
55720;SDS011;41626;53.098;6.168;2022-08-01T00:38:32;5.93;;;4.38;;
55720;SDS011;41626;53.098;6.168;2022-08-01T00:40:58;5.60;;;3.53;;
55720;SDS011;41626;53.098;6.168;2022-08-01T00:43:24;9.15;;;4.90;;
55720;SDS011;41626;53.098;6.168;2022-08-01T00:45:49;6.45;;;4.78;;
55720;SDS011;41626;53.098;6.168;2022-08-01T00:48:15;5.45;;;3.20;;
55720;SDS011;41626;53.098;6.168;2022-08-01T00:50:41;6.97;;;4.53;;
55720;SDS011;41626;53.098;6.168;2022-08-01T00:53:06;5.57;;;3.85;;
55720;SDS011;41626;53.098;6.168;2022-08-01T00:55:32;7.63;;;3.72;;
55720;SDS011;41626;53.098;6.168;2022-08-01T00:57:58;5.22;;;3.95;;
55720;SDS011;41626;53.098;6.168;2022-08-01T01:00:24;6.38;;;3.50;;
55720;SDS011;41626;53.098;6.168;2022-08-01T01:02:50;5.25;;;3.85;;
55720;SDS011;41626;53.098;6.168;2022-08-01T01:05:16;5.07;;;3.63;;
55720;SDS011;41626;53.098;6.168;2022-08-01T01:15:56;7.05;;;3.20;;
55720;SDS011;41626;53.098;6.168;2022-08-01T01:18:27;5.28;;;3.20;;
55720;SDS011;41626;53.098;6.168;2022-08-01T01:21:00;5.40;;;3.85;;
55720;SDS011;41626;53.098;6.168;2022-08-01T01:32:02;3.33;;;1.52;;
55720;SDS011;41626;53.098;6.168;2022-08-01T01:34:38;4.05;;;1.52;;
55720;SDS011;41626;53.098;6.168;2022-08-01T01:37:09;3.42;;;1.70;;
55720;SDS011;41626;53.098;6.168;2022-08-01T01:39:39;3.15;;;1.40;;
55720;SDS011;41626;53.098;6.168;2022-08-01T01:42:06;2.88;;;1.58;;
55720;SDS011;41626;53.098;6.168;2022-08-01T01:44:32;3.00;;;1.27;;
55720;SDS011;41626;53.098;6.168;2022-08-01T01:46:59;4.03;;;1.27;;
55720;SDS011;41626;53.098;6.168;2022-08-01T01:49:26;5.63;;;1.88;;
55720;SDS011;41626;53.098;6.168;2022-08-01T01:51:53;2.67;;;1.27;;
55720;SDS011;41626;53.098;6.168;2022-08-01T01:54:21;8.43;;;1.88;;
55720;SDS011;41626;53.098;6.168;2022-08-01T01:56:50;3.30;;;1.80;;
55720;SDS011;41626;53.098;6.168;2022-08-01T01:59:18;2.33;;;1.20;;
55720;SDS011;41626;53.098;6.168;2022-08-01T02:01:49;6.40;;;2.33;;
55720;SDS011;41626;53.098;6.168;2022-08-01T02:06:42;5.38;;;1.60;;
55720;SDS011;41626;53.098;6.168;2022-08-01T02:09:10;3.40;;;1.60;;
55720;SDS011;41626;53.098;6.168;2022-08-01T02:11:39;4.82;;;1.60;;
55720;SDS011;41626;53.098;6.168;2022-08-01T02:14:05;4.32;;;1.67;;
55720;SDS011;41626;53.098;6.168;2022-08-01T02:16:36;3.15;;;1.85;;
55720;SDS011;41626;53.098;6.168;2022-08-01T02:19:06;5.18;;;1.67;;
55720;SDS011;41626;53.098;6.168;2022-08-01T02:21:55;2.63;;;1.90;;
55720;SDS011;41626;53.098;6.168;2022-08-01T02:26:52;8.43;;;3.53;;
55720;SDS011;41626;53.098;6.168;2022-08-01T02:29:24;5.78;;;2.15;;
55720;SDS011;41626;53.098;6.168;2022-08-01T02:31:55;11.93;;;3.63;;
55720;SDS011;41626;53.098;6.168;2022-08-01T02:34:22;6.75;;;2.38;;
55720;SDS011;41626;53.098;6.168;2022-08-01T02:36:53;10.80;;;4.00;;
55720;SDS011;41626;53.098;6.168;2022-08-01T02:39:21;6.35;;;1.90;;
55720;SDS011;41626;53.098;6.168;2022-08-01T02:41:49;6.18;;;2.38;;
55720;SDS011;41626;53.098;6.168;2022-08-01T02:44:23;6.72;;;2.50;;
55720;SDS011;41626;53.098;6.168;2022-08-01T02:46:52;7.13;;;1.95;;
55720;SDS011;41626;53.098;6.168;2022-08-01T02:49:22;5.68;;;2.63;;
55720;SDS011;41626;53.098;6.168;2022-08-01T02:51:51;10.23;;;3.10;;
55720;SDS011;41626;53.098;6.168;2022-08-01T02:54:19;7.13;;;2.15;;
55720;SDS011;41626;53.098;6.168;2022-08-01T02:56:47;10.70;;;2.70;;
55720;SDS011;41626;53.098;6.168;2022-08-01T02:59:16;7.30;;;3.17;;
55720;SDS011;41626;53.098;6.168;2022-08-01T03:01:46;8.32;;;2.78;;
55720;SDS011;41626;53.098;6.168;2022-08-01T03:04:13;5.93;;;2.47;;
55720;SDS011;41626;53.098;6.168;2022-08-01T03:06:42;6.80;;;2.92;;
55720;SDS011;41626;53.098;6.168;2022-08-01T03:09:09;5.63;;;2.22;;
55720;SDS011;41626;53.098;6.168;2022-08-01T03:11:36;12.38;;;4.50;;
55720;SDS011;41626;53.098;6.168;2022-08-01T03:14:05;5.93;;;2.45;;
55720;SDS011;41626;53.098;6.168;2022-08-01T03:16:33;13.80;;;3.67;;
55720;SDS011;41626;53.098;6.168;2022-08-01T03:19:02;13.25;;;3.20;;
55720;SDS011;41626;53.098;6.168;2022-08-01T03:21:29;12.18;;;3.67;;
55720;SDS011;41626;53.098;6.168;2022-08-01T03:23:57;13.18;;;4.60;;
55720;SDS011;41626;53.098;6.168;2022-08-01T03:26:28;16.23;;;4.05;;
55720;SDS011;41626;53.098;6.168;2022-08-01T03:28:56;8.27;;;3.40;;
55720;SDS011;41626;53.098;6.168;2022-08-01T03:31:25;8.57;;;4.10;;
55720;SDS011;41626;53.098;6.168;2022-08-01T03:33:51;10.90;;;4.05;;
55720;SDS011;41626;53.098;6.168;2022-08-01T03:36:17;8.35;;;3.92;;
55720;SDS011;41626;53.098;6.168;2022-08-01T03:38:47;9.77;;;3.58;;
55720;SDS011;41626;53.098;6.168;2022-08-01T03:41:16;10.95;;;3.25;;
55720;SDS011;41626;53.098;6.168;2022-08-01T03:44:01;10.23;;;4.03;;
55720;SDS011;41626;53.098;6.168;2022-08-01T03:46:35;10.57;;;4.07;;
55720;SDS011;41626;53.098;6.168;2022-08-01T03:49:11;17.52;;;4.13;;
55720;SDS011;41626;53.098;6.168;2022-08-01T03:51:48;10.23;;;3.53;;
55720;SDS011;41626;53.098;6.168;2022-08-01T03:54:16;19.73;;;5.35;;
55720;SDS011;41626;53.098;6.168;2022-08-01T03:56:53;9.52;;;3.33;;
55720;SDS011;41626;53.098;6.168;2022-08-01T03:59:19;10.98;;;3.78;;
55720;SDS011;41626;53.098;6.168;2022-08-01T04:01:46;16.85;;;3.70;;
55720;SDS011;41626;53.098;6.168;2022-08-01T04:04:13;14.65;;;3.65;;
55720;SDS011;41626;53.098;6.168;2022-08-01T04:06:40;21.23;;;5.55;;
55720;SDS011;41626;53.098;6.168;2022-08-01T04:09:09;13.77;;;3.88;;
55720;SDS011;41626;53.098;6.168;2022-08-01T04:11:35;14.18;;;3.92;;
55720;SDS011;41626;53.098;6.168;2022-08-01T04:14:01;9.80;;;3.47;;
55720;SDS011;41626;53.098;6.168;2022-08-01T04:16:28;13.52;;;3.92;;
55720;SDS011;41626;53.098;6.168;2022-08-01T04:18:54;22.88;;;5.85;;
55720;SDS011;41626;53.098;6.168;2022-08-01T04:21:20;25.83;;;5.10;;
55720;SDS011;41626;53.098;6.168;2022-08-01T04:23:49;15.45;;;5.20;;
55720;SDS011;41626;53.098;6.168;2022-08-01T04:26:18;18.60;;;3.00;;
55720;SDS011;41626;53.098;6.168;2022-08-01T04:28:44;14.65;;;2.97;;
55720;SDS011;41626;53.098;6.168;2022-08-01T04:31:12;22.25;;;3.83;;
55720;SDS011;41626;53.098;6.168;2022-08-01T04:33:42;14.50;;;3.60;;
55720;SDS011;41626;53.098;6.168;2022-08-01T04:36:11;22.95;;;4.35;;
55720;SDS011;41626;53.098;6.168;2022-08-01T04:38:40;19.13;;;4.28;;
55720;SDS011;41626;53.098;6.168;2022-08-01T04:41:11;19.27;;;3.72;;
55720;SDS011;41626;53.098;6.168;2022-08-01T04:43:38;13.65;;;2.63;;
55720;SDS011;41626;53.098;6.168;2022-08-01T04:46:05;15.93;;;3.83;;
55720;SDS011;41626;53.098;6.168;2022-08-01T04:48:32;16.65;;;4.60;;
55720;SDS011;41626;53.098;6.168;2022-08-01T04:51:01;11.63;;;2.53;;
55720;SDS011;41626;53.098;6.168;2022-08-01T04:53:28;18.67;;;3.08;;
55720;SDS011;41626;53.098;6.168;2022-08-01T04:55:53;19.35;;;3.88;;
55720;SDS011;41626;53.098;6.168;2022-08-01T04:58:19;12.13;;;3.95;;
55720;SDS011;41626;53.098;6.168;2022-08-01T05:00:45;15.43;;;2.92;;
55720;SDS011;41626;53.098;6.168;2022-08-01T05:03:11;19.20;;;3.90;;
55720;SDS011;41626;53.098;6.168;2022-08-01T05:05:36;18.98;;;3.60;;
55720;SDS011;41626;53.098;6.168;2022-08-01T05:08:02;20.55;;;6.28;;
55720;SDS011;41626;53.098;6.168;2022-08-01T05:10:28;23.15;;;5.25;;
55720;SDS011;41626;53.098;6.168;2022-08-01T05:12:54;21.85;;;4.32;;
55720;SDS011;41626;53.098;6.168;2022-08-01T05:15:20;16.73;;;3.30;;
55720;SDS011;41626;53.098;6.168;2022-08-01T05:17:46;17.58;;;4.80;;
55720;SDS011;41626;53.098;6.168;2022-08-01T05:20:12;13.63;;;2.95;;
55720;SDS011;41626;53.098;6.168;2022-08-01T05:22:37;17.63;;;3.47;;
55720;SDS011;41626;53.098;6.168;2022-08-01T05:25:03;17.52;;;5.03;;
55720;SDS011;41626;53.098;6.168;2022-08-01T05:27:30;15.50;;;4.97;;
55720;SDS011;41626;53.098;6.168;2022-08-01T05:29:56;16.73;;;2.53;;
55720;SDS011;41626;53.098;6.168;2022-08-01T05:32:22;22.20;;;4.20;;
55720;SDS011;41626;53.098;6.168;2022-08-01T05:34:47;14.45;;;3.30;;
55720;SDS011;41626;53.098;6.168;2022-08-01T05:37:13;11.27;;;3.45;;
55720;SDS011;41626;53.098;6.168;2022-08-01T05:39:39;14.45;;;3.05;;
55720;SDS011;41626;53.098;6.168;2022-08-01T05:42:05;13.23;;;2.70;;
55720;SDS011;41626;53.098;6.168;2022-08-01T05:44:31;23.58;;;3.92;;
55720;SDS011;41626;53.098;6.168;2022-08-01T05:46:56;18.23;;;4.40;;
55720;SDS011;41626;53.098;6.168;2022-08-01T05:49:22;16.17;;;3.58;;
55720;SDS011;41626;53.098;6.168;2022-08-01T05:51:48;23.23;;;4.88;;
55720;SDS011;41626;53.098;6.168;2022-08-01T05:54:14;15.65;;;3.10;;
55720;SDS011;41626;53.098;6.168;2022-08-01T05:56:39;18.10;;;3.83;;
55720;SDS011;41626;53.098;6.168;2022-08-01T05:59:05;13.77;;;2.70;;
55720;SDS011;41626;53.098;6.168;2022-08-01T06:01:31;14.80;;;2.40;;
55720;SDS011;41626;53.098;6.168;2022-08-01T06:03:57;18.30;;;3.22;;
55720;SDS011;41626;53.098;6.168;2022-08-01T06:06:23;17.80;;;4.68;;
55720;SDS011;41626;53.098;6.168;2022-08-01T06:08:48;18.15;;;2.97;;
55720;SDS011;41626;53.098;6.168;2022-08-01T06:11:15;23.58;;;4.25;;
55720;SDS011;41626;53.098;6.168;2022-08-01T06:13:40;16.10;;;3.28;;
55720;SDS011;41626;53.098;6.168;2022-08-01T06:16:07;15.57;;;3.03;;
55720;SDS011;41626;53.098;6.168;2022-08-01T06:18:33;14.73;;;2.53;;
55720;SDS011;41626;53.098;6.168;2022-08-01T06:20:59;22.30;;;4.55;;
55720;SDS011;41626;53.098;6.168;2022-08-01T06:23:24;16.80;;;3.38;;
55720;SDS011;41626;53.098;6.168;2022-08-01T06:25:53;13.18;;;3.08;;
55720;SDS011;41626;53.098;6.168;2022-08-01T06:28:20;20.17;;;3.88;;
55720;SDS011;41626;53.098;6.168;2022-08-01T06:30:46;15.10;;;3.22;;
55720;SDS011;41626;53.098;6.168;2022-08-01T06:33:11;22.50;;;5.47;;
55720;SDS011;41626;53.098;6.168;2022-08-01T06:35:37;24.52;;;3.95;;
55720;SDS011;41626;53.098;6.168;2022-08-01T06:38:03;16.85;;;3.08;;
55720;SDS011;41626;53.098;6.168;2022-08-01T06:40:28;10.18;;;2.30;;
55720;SDS011;41626;53.098;6.168;2022-08-01T06:42:54;17.67;;;4.40;;
55720;SDS011;41626;53.098;6.168;2022-08-01T06:45:20;16.77;;;4.00;;
55720;SDS011;41626;53.098;6.168;2022-08-01T06:47:47;28.52;;;5.15;;
55720;SDS011;41626;53.098;6.168;2022-08-01T06:50:13;18.80;;;4.38;;
55720;SDS011;41626;53.098;6.168;2022-08-01T06:52:40;18.08;;;3.25;;
55720;SDS011;41626;53.098;6.168;2022-08-01T06:55:06;16.08;;;2.75;;
55720;SDS011;41626;53.098;6.168;2022-08-01T06:57:33;16.45;;;4.10;;
55720;SDS011;41626;53.098;6.168;2022-08-01T07:00:00;24.25;;;5.30;;
55720;SDS011;41626;53.098;6.168;2022-08-01T07:02:28;11.57;;;2.10;;
55720;SDS011;41626;53.098;6.168;2022-08-01T07:04:54;16.92;;;3.42;;
55720;SDS011;41626;53.098;6.168;2022-08-01T07:07:19;9.93;;;2.95;;
55720;SDS011;41626;53.098;6.168;2022-08-01T07:09:45;17.23;;;3.28;;
55720;SDS011;41626;53.098;6.168;2022-08-01T07:12:11;13.90;;;3.03;;
55720;SDS011;41626;53.098;6.168;2022-08-01T07:14:36;10.75;;;2.63;;
55720;SDS011;41626;53.098;6.168;2022-08-01T07:17:02;15.55;;;3.80;;
55720;SDS011;41626;53.098;6.168;2022-08-01T07:19:27;22.70;;;6.22;;
55720;SDS011;41626;53.098;6.168;2022-08-01T07:21:53;15.27;;;4.35;;
55720;SDS011;41626;53.098;6.168;2022-08-01T07:24:19;15.05;;;3.72;;
55720;SDS011;41626;53.098;6.168;2022-08-01T07:26:46;9.82;;;2.47;;
55720;SDS011;41626;53.098;6.168;2022-08-01T07:29:13;15.80;;;3.00;;
55720;SDS011;41626;53.098;6.168;2022-08-01T07:31:39;15.48;;;3.22;;
55720;SDS011;41626;53.098;6.168;2022-08-01T07:34:05;10.13;;;2.38;;
55720;SDS011;41626;53.098;6.168;2022-08-01T07:36:31;23.50;;;4.03;;
55720;SDS011;41626;53.098;6.168;2022-08-01T07:38:56;13.55;;;3.05;;
55720;SDS011;41626;53.098;6.168;2022-08-01T07:41:22;11.60;;;1.85;;
55720;SDS011;41626;53.098;6.168;2022-08-01T07:43:48;10.93;;;2.45;;
55720;SDS011;41626;53.098;6.168;2022-08-01T07:46:14;15.18;;;1.98;;
55720;SDS011;41626;53.098;6.168;2022-08-01T07:48:40;7.30;;;1.52;;
55720;SDS011;41626;53.098;6.168;2022-08-01T07:51:06;11.05;;;2.42;;
55720;SDS011;41626;53.098;6.168;2022-08-01T07:53:33;19.20;;;3.10;;
55720;SDS011;41626;53.098;6.168;2022-08-01T07:55:59;9.73;;;2.20;;
55720;SDS011;41626;53.098;6.168;2022-08-01T07:58:24;20.50;;;4.90;;
55720;SDS011;41626;53.098;6.168;2022-08-01T08:00:50;14.02;;;2.38;;
55720;SDS011;41626;53.098;6.168;2022-08-01T08:03:16;9.70;;;2.05;;
55720;SDS011;41626;53.098;6.168;2022-08-01T08:05:41;15.05;;;2.65;;
55720;SDS011;41626;53.098;6.168;2022-08-01T08:08:07;7.00;;;2.40;;
55720;SDS011;41626;53.098;6.168;2022-08-01T08:10:35;13.45;;;3.33;;
55720;SDS011;41626;53.098;6.168;2022-08-01T08:13:01;11.45;;;2.47;;
55720;SDS011;41626;53.098;6.168;2022-08-01T08:15:27;11.77;;;2.13;;
55720;SDS011;41626;53.098;6.168;2022-08-01T08:17:53;9.00;;;1.90;;
55720;SDS011;41626;53.098;6.168;2022-08-01T08:20:19;11.05;;;2.38;;
55720;SDS011;41626;53.098;6.168;2022-08-01T08:22:50;16.88;;;2.40;;
55720;SDS011;41626;53.098;6.168;2022-08-01T08:25:16;12.13;;;2.42;;
55720;SDS011;41626;53.098;6.168;2022-08-01T08:27:44;16.35;;;2.28;;
55720;SDS011;41626;53.098;6.168;2022-08-01T08:30:11;6.55;;;2.22;;
55720;SDS011;41626;53.098;6.168;2022-08-01T08:32:37;9.02;;;2.10;;
55720;SDS011;41626;53.098;6.168;2022-08-01T08:35:03;8.05;;;1.73;;
55720;SDS011;41626;53.098;6.168;2022-08-01T08:37:30;7.90;;;2.22;;
55720;SDS011;41626;53.098;6.168;2022-08-01T08:39:55;17.98;;;2.15;;
55720;SDS011;41626;53.098;6.168;2022-08-01T08:42:21;13.43;;;3.40;;
55720;SDS011;41626;53.098;6.168;2022-08-01T08:44:48;9.55;;;2.38;;
55720;SDS011;41626;53.098;6.168;2022-08-01T08:47:14;4.40;;;1.25;;
55720;SDS011;41626;53.098;6.168;2022-08-01T08:49:41;13.80;;;2.92;;
55720;SDS011;41626;53.098;6.168;2022-08-01T08:52:09;7.25;;;2.55;;
55720;SDS011;41626;53.098;6.168;2022-08-01T08:54:35;10.57;;;1.73;;
55720;SDS011;41626;53.098;6.168;2022-08-01T08:57:03;12.65;;;2.67;;
55720;SDS011;41626;53.098;6.168;2022-08-01T08:59:29;10.23;;;1.55;;
55720;SDS011;41626;53.098;6.168;2022-08-01T09:01:57;14.02;;;2.05;;
55720;SDS011;41626;53.098;6.168;2022-08-01T09:04:23;6.47;;;1.40;;
55720;SDS011;41626;53.098;6.168;2022-08-01T09:06:50;11.70;;;3.55;;
55720;SDS011;41626;53.098;6.168;2022-08-01T09:09:16;7.15;;;1.58;;
55720;SDS011;41626;53.098;6.168;2022-08-01T09:11:42;10.40;;;1.95;;
55720;SDS011;41626;53.098;6.168;2022-08-01T09:14:16;10.93;;;2.25;;
55720;SDS011;41626;53.098;6.168;2022-08-01T09:17:06;4.65;;;1.48;;
55720;SDS011;41626;53.098;6.168;2022-08-01T09:22:13;12.45;;;2.42;;
55720;SDS011;41626;53.098;6.168;2022-08-01T09:27:32;14.35;;;3.22;;
55720;SDS011;41626;53.098;6.168;2022-08-01T09:30:12;8.90;;;2.25;;
55720;SDS011;41626;53.098;6.168;2022-08-01T09:35:30;8.13;;;2.10;;
55720;SDS011;41626;53.098;6.168;2022-08-01T09:38:15;6.95;;;1.52;;
55720;SDS011;41626;53.098;6.168;2022-08-01T09:40:58;7.75;;;1.80;;
55720;SDS011;41626;53.098;6.168;2022-08-01T09:43:26;13.65;;;1.77;;
55720;SDS011;41626;53.098;6.168;2022-08-01T09:45:54;10.38;;;1.50;;
55720;SDS011;41626;53.098;6.168;2022-08-01T09:48:20;6.22;;;1.17;;
55720;SDS011;41626;53.098;6.168;2022-08-01T09:50:47;10.15;;;3.00;;
55720;SDS011;41626;53.098;6.168;2022-08-01T09:53:15;4.40;;;1.10;;
55720;SDS011;41626;53.098;6.168;2022-08-01T09:55:41;12.75;;;2.10;;
55720;SDS011;41626;53.098;6.168;2022-08-01T09:58:08;10.60;;;1.73;;
55720;SDS011;41626;53.098;6.168;2022-08-01T10:00:35;7.05;;;1.67;;
55720;SDS011;41626;53.098;6.168;2022-08-01T10:03:18;4.90;;;1.38;;
55720;SDS011;41626;53.098;6.168;2022-08-01T10:05:48;9.52;;;1.30;;
55720;SDS011;41626;53.098;6.168;2022-08-01T10:08:14;7.88;;;1.55;;
55720;SDS011;41626;53.098;6.168;2022-08-01T10:10:39;8.13;;;0.95;;
55720;SDS011;41626;53.098;6.168;2022-08-01T10:13:05;7.45;;;1.83;;
55720;SDS011;41626;53.098;6.168;2022-08-01T10:15:33;8.80;;;1.42;;
55720;SDS011;41626;53.098;6.168;2022-08-01T10:18:00;9.00;;;2.15;;
55720;SDS011;41626;53.098;6.168;2022-08-01T10:20:30;6.13;;;1.00;;
55720;SDS011;41626;53.098;6.168;2022-08-01T10:22:58;9.43;;;1.67;;
55720;SDS011;41626;53.098;6.168;2022-08-01T10:25:26;6.82;;;1.40;;
55720;SDS011;41626;53.098;6.168;2022-08-01T10:27:53;5.28;;;1.38;;
55720;SDS011;41626;53.098;6.168;2022-08-01T10:30:23;8.03;;;1.57;;
55720;SDS011;41626;53.098;6.168;2022-08-01T10:32:49;8.85;;;1.95;;
55720;SDS011;41626;53.098;6.168;2022-08-01T10:35:17;11.18;;;3.83;;
55720;SDS011;41626;53.098;6.168;2022-08-01T10:37:44;10.98;;;1.50;;
55720;SDS011;41626;53.098;6.168;2022-08-01T10:40:14;12.27;;;3.00;;
55720;SDS011;41626;53.098;6.168;2022-08-01T10:42:41;8.77;;;1.23;;
55720;SDS011;41626;53.098;6.168;2022-08-01T10:45:08;7.05;;;1.52;;
55720;SDS011;41626;53.098;6.168;2022-08-01T10:50:28;10.85;;;2.38;;
55720;SDS011;41626;53.098;6.168;2022-08-01T11:08:57;8.77;;;1.13;;
55720;SDS011;41626;53.098;6.168;2022-08-01T11:11:25;13.27;;;2.28;;
55720;SDS011;41626;53.098;6.168;2022-08-01T11:16:26;6.63;;;1.50;;
55720;SDS011;41626;53.098;6.168;2022-08-01T11:18:53;8.23;;;0.88;;
55720;SDS011;41626;53.098;6.168;2022-08-01T11:21:19;8.65;;;1.52;;
55720;SDS011;41626;53.098;6.168;2022-08-01T11:23:49;5.85;;;0.95;;
55720;SDS011;41626;53.098;6.168;2022-08-01T11:26:19;6.78;;;0.70;;
55720;SDS011;41626;53.098;6.168;2022-08-01T11:29:08;10.65;;;1.25;;
55720;SDS011;41626;53.098;6.168;2022-08-01T11:31:42;3.63;;;1.10;;
55720;SDS011;41626;53.098;6.168;2022-08-01T11:34:08;5.28;;;1.10;;
55720;SDS011;41626;53.098;6.168;2022-08-01T11:36:33;8.65;;;1.10;;
55720;SDS011;41626;53.098;6.168;2022-08-01T11:41:29;11.70;;;1.77;;
55720;SDS011;41626;53.098;6.168;2022-08-01T11:44:00;6.93;;;1.20;;
55720;SDS011;41626;53.098;6.168;2022-08-01T11:54:37;6.57;;;1.33;;
55720;SDS011;41626;53.098;6.168;2022-08-01T11:57:11;6.72;;;1.27;;
55720;SDS011;41626;53.098;6.168;2022-08-01T11:59:48;6.20;;;1.25;;
55720;SDS011;41626;53.098;6.168;2022-08-01T12:02:30;5.55;;;1.23;;
55720;SDS011;41626;53.098;6.168;2022-08-01T12:04:58;4.25;;;1.02;;
55720;SDS011;41626;53.098;6.168;2022-08-01T12:07:25;7.78;;;1.30;;
55720;SDS011;41626;53.098;6.168;2022-08-01T12:10:05;7.75;;;1.45;;
55720;SDS011;41626;53.098;6.168;2022-08-01T12:13:00;3.45;;;0.75;;
55720;SDS011;41626;53.098;6.168;2022-08-01T12:15:44;7.68;;;0.95;;
55720;SDS011;41626;53.098;6.168;2022-08-01T12:18:10;5.72;;;1.52;;
55720;SDS011;41626;53.098;6.168;2022-08-01T12:20:41;5.20;;;1.83;;
55720;SDS011;41626;53.098;6.168;2022-08-01T12:23:13;5.40;;;1.25;;
55720;SDS011;41626;53.098;6.168;2022-08-01T12:25:40;4.90;;;0.85;;
55720;SDS011;41626;53.098;6.168;2022-08-01T12:28:09;6.55;;;0.90;;
55720;SDS011;41626;53.098;6.168;2022-08-01T12:30:38;4.28;;;0.82;;
55720;SDS011;41626;53.098;6.168;2022-08-01T12:33:06;7.65;;;1.35;;
55720;SDS011;41626;53.098;6.168;2022-08-01T12:35:34;6.85;;;1.20;;
55720;SDS011;41626;53.098;6.168;2022-08-01T12:40:31;6.70;;;1.00;;
55720;SDS011;41626;53.098;6.168;2022-08-01T12:42:59;4.70;;;1.02;;
55720;SDS011;41626;53.098;6.168;2022-08-01T12:47:55;6.80;;;2.03;;
55720;SDS011;41626;53.098;6.168;2022-08-01T12:50:26;8.10;;;1.50;;
55720;SDS011;41626;53.098;6.168;2022-08-01T12:52:54;4.00;;;0.80;;
55720;SDS011;41626;53.098;6.168;2022-08-01T12:55:22;6.60;;;1.92;;
55720;SDS011;41626;53.098;6.168;2022-08-01T12:58:03;5.85;;;1.23;;
55720;SDS011;41626;53.098;6.168;2022-08-01T13:00:29;5.32;;;0.88;;
55720;SDS011;41626;53.098;6.168;2022-08-01T13:03:06;3.92;;;1.23;;
55720;SDS011;41626;53.098;6.168;2022-08-01T13:05:49;6.53;;;1.13;;
55720;SDS011;41626;53.098;6.168;2022-08-01T13:08:17;3.63;;;1.10;;
55720;SDS011;41626;53.098;6.168;2022-08-01T13:10:44;9.88;;;1.42;;
55720;SDS011;41626;53.098;6.168;2022-08-01T13:13:10;4.72;;;1.17;;
55720;SDS011;41626;53.098;6.168;2022-08-01T13:15:37;4.80;;;1.02;;
55720;SDS011;41626;53.098;6.168;2022-08-01T13:18:26;8.18;;;1.23;;
55720;SDS011;41626;53.098;6.168;2022-08-01T13:21:13;7.10;;;0.70;;
55720;SDS011;41626;53.098;6.168;2022-08-01T13:26:38;4.35;;;1.13;;
55720;SDS011;41626;53.098;6.168;2022-08-01T13:29:09;6.32;;;1.67;;
55720;SDS011;41626;53.098;6.168;2022-08-01T13:31:36;4.90;;;1.35;;
55720;SDS011;41626;53.098;6.168;2022-08-01T13:34:02;2.65;;;1.02;;
55720;SDS011;41626;53.098;6.168;2022-08-01T13:36:28;5.53;;;0.70;;
55720;SDS011;41626;53.098;6.168;2022-08-01T13:38:56;11.32;;;1.23;;
55720;SDS011;41626;53.098;6.168;2022-08-01T13:41:40;5.03;;;0.90;;
55720;SDS011;41626;53.098;6.168;2022-08-01T13:44:06;3.40;;;0.93;;
55720;SDS011;41626;53.098;6.168;2022-08-01T13:46:34;2.70;;;0.70;;
55720;SDS011;41626;53.098;6.168;2022-08-01T13:49:00;8.05;;;1.25;;
55720;SDS011;41626;53.098;6.168;2022-08-01T13:51:26;7.82;;;0.80;;
55720;SDS011;41626;53.098;6.168;2022-08-01T13:53:52;7.25;;;1.10;;
55720;SDS011;41626;53.098;6.168;2022-08-01T13:56:18;5.53;;;1.10;;
55720;SDS011;41626;53.098;6.168;2022-08-01T13:58:45;5.63;;;1.20;;
55720;SDS011;41626;53.098;6.168;2022-08-01T14:01:11;7.93;;;1.00;;
55720;SDS011;41626;53.098;6.168;2022-08-01T14:03:37;4.30;;;1.17;;
55720;SDS011;41626;53.098;6.168;2022-08-01T14:06:03;3.35;;;0.82;;
55720;SDS011;41626;53.098;6.168;2022-08-01T14:08:29;7.50;;;1.98;;
55720;SDS011;41626;53.098;6.168;2022-08-01T14:10:55;6.25;;;1.10;;
55720;SDS011;41626;53.098;6.168;2022-08-01T14:13:27;2.63;;;1.10;;
55720;SDS011;41626;53.098;6.168;2022-08-01T14:15:53;2.80;;;0.77;;
55720;SDS011;41626;53.098;6.168;2022-08-01T14:18:19;4.63;;;0.88;;
55720;SDS011;41626;53.098;6.168;2022-08-01T14:20:45;7.07;;;1.52;;
55720;SDS011;41626;53.098;6.168;2022-08-01T14:23:11;4.22;;;0.75;;
55720;SDS011;41626;53.098;6.168;2022-08-01T14:25:37;7.65;;;1.00;;
55720;SDS011;41626;53.098;6.168;2022-08-01T14:28:04;4.03;;;0.73;;
55720;SDS011;41626;53.098;6.168;2022-08-01T14:30:31;6.60;;;2.05;;
55720;SDS011;41626;53.098;6.168;2022-08-01T14:32:57;8.32;;;1.20;;
55720;SDS011;41626;53.098;6.168;2022-08-01T14:35:23;4.95;;;1.30;;
55720;SDS011;41626;53.098;6.168;2022-08-01T14:37:49;3.35;;;1.50;;
55720;SDS011;41626;53.098;6.168;2022-08-01T14:40:15;5.32;;;0.88;;
55720;SDS011;41626;53.098;6.168;2022-08-01T14:42:40;4.47;;;1.23;;
55720;SDS011;41626;53.098;6.168;2022-08-01T14:45:08;11.10;;;1.52;;
55720;SDS011;41626;53.098;6.168;2022-08-01T14:47:35;4.47;;;0.85;;
55720;SDS011;41626;53.098;6.168;2022-08-01T14:50:02;3.88;;;0.90;;
55720;SDS011;41626;53.098;6.168;2022-08-01T14:52:29;6.88;;;1.35;;
55720;SDS011;41626;53.098;6.168;2022-08-01T14:54:55;5.05;;;1.08;;
55720;SDS011;41626;53.098;6.168;2022-08-01T14:57:20;5.75;;;1.25;;
55720;SDS011;41626;53.098;6.168;2022-08-01T14:59:46;4.95;;;1.02;;
55720;SDS011;41626;53.098;6.168;2022-08-01T15:02:12;5.28;;;0.80;;
55720;SDS011;41626;53.098;6.168;2022-08-01T15:04:41;5.25;;;0.90;;
55720;SDS011;41626;53.098;6.168;2022-08-01T15:07:10;5.60;;;1.38;;
55720;SDS011;41626;53.098;6.168;2022-08-01T15:09:39;5.60;;;1.20;;
55720;SDS011;41626;53.098;6.168;2022-08-01T15:12:05;8.73;;;2.25;;
55720;SDS011;41626;53.098;6.168;2022-08-01T15:14:31;6.97;;;2.55;;
55720;SDS011;41626;53.098;6.168;2022-08-01T15:17:16;3.85;;;0.90;;
55720;SDS011;41626;53.098;6.168;2022-08-01T15:19:46;7.25;;;1.58;;
55720;SDS011;41626;53.098;6.168;2022-08-01T15:22:13;4.40;;;0.90;;
55720;SDS011;41626;53.098;6.168;2022-08-01T15:24:39;6.03;;;0.93;;
55720;SDS011;41626;53.098;6.168;2022-08-01T15:27:05;5.25;;;0.70;;
55720;SDS011;41626;53.098;6.168;2022-08-01T15:29:31;4.55;;;0.85;;
55720;SDS011;41626;53.098;6.168;2022-08-01T15:31:58;5.88;;;0.80;;
55720;SDS011;41626;53.098;6.168;2022-08-01T15:34:24;2.97;;;0.68;;
55720;SDS011;41626;53.098;6.168;2022-08-01T15:36:50;3.42;;;1.15;;
55720;SDS011;41626;53.098;6.168;2022-08-01T15:39:16;7.00;;;2.00;;
55720;SDS011;41626;53.098;6.168;2022-08-01T15:41:42;7.07;;;0.93;;
55720;SDS011;41626;53.098;6.168;2022-08-01T15:44:07;4.70;;;1.30;;
55720;SDS011;41626;53.098;6.168;2022-08-01T15:46:33;3.53;;;1.13;;
55720;SDS011;41626;53.098;6.168;2022-08-01T15:49:02;4.90;;;1.40;;
55720;SDS011;41626;53.098;6.168;2022-08-01T15:51:32;5.57;;;1.27;;
55720;SDS011;41626;53.098;6.168;2022-08-01T15:53:58;6.68;;;1.20;;
55720;SDS011;41626;53.098;6.168;2022-08-01T15:56:28;4.97;;;0.90;;
55720;SDS011;41626;53.098;6.168;2022-08-01T15:58:55;5.65;;;0.90;;